sensor_id;sensor_type;location;lat;lon;timestamp;temperature;humidity
70269;DHT22;58514;48.398;-4.274;2022-08-25T13:31:31;29.00;60.50
70269;DHT22;58514;48.398;-4.274;2022-08-25T13:34:05;29.10;61.40
70269;DHT22;58514;48.398;-4.274;2022-08-25T13:36:35;29.20;61.90
70269;DHT22;58514;48.398;-4.274;2022-08-25T13:39:26;29.40;60.90
70269;DHT22;58514;48.398;-4.274;2022-08-25T13:41:55;29.40;59.90
70269;DHT22;58514;48.398;-4.274;2022-08-25T13:44:24;29.40;58.60
70269;DHT22;58514;48.398;-4.274;2022-08-25T13:49:31;29.30;58.90
70269;DHT22;58514;48.398;-4.274;2022-08-25T13:51:58;29.20;58.70
70269;DHT22;58514;48.398;-4.274;2022-08-25T13:54:30;29.10;58.20
70269;DHT22;58514;48.398;-4.274;2022-08-25T13:57:20;29.10;58.60
70269;DHT22;58514;48.398;-4.274;2022-08-25T13:59:50;29.00;58.20
70269;DHT22;58514;48.398;-4.274;2022-08-25T14:02:47;28.90;58.20
70269;DHT22;58514;48.398;-4.274;2022-08-25T14:05:15;28.80;58.30
70269;DHT22;58514;48.398;-4.274;2022-08-25T14:07:54;28.60;57.90
70269;DHT22;58514;48.398;-4.274;2022-08-25T14:13:16;28.20;58.20
70269;DHT22;58514;48.398;-4.274;2022-08-25T14:15:53;28.00;59.00
70269;DHT22;58514;48.398;-4.274;2022-08-25T14:18:19;27.90;59.40
70269;DHT22;58514;48.398;-4.274;2022-08-25T14:20:51;27.70;58.30
70269;DHT22;58514;48.398;-4.274;2022-08-25T14:23:23;27.60;58.70
70269;DHT22;58514;48.398;-4.274;2022-08-25T14:25:51;27.40;58.70
70269;DHT22;58514;48.398;-4.274;2022-08-25T14:28:20;27.30;58.60
70269;DHT22;58514;48.398;-4.274;2022-08-25T14:30:49;27.10;57.90
70269;DHT22;58514;48.398;-4.274;2022-08-25T14:33:17;27.00;58.60
70269;DHT22;58514;48.398;-4.274;2022-08-25T14:35:47;26.90;58.90
70269;DHT22;58514;48.398;-4.274;2022-08-25T14:38:14;26.80;58.80
70269;DHT22;58514;48.398;-4.274;2022-08-25T14:40:41;26.70;59.20
70269;DHT22;58514;48.398;-4.274;2022-08-25T14:43:07;26.60;59.70
70269;DHT22;58514;48.398;-4.274;2022-08-25T14:45:33;26.60;58.60
70269;DHT22;58514;48.398;-4.274;2022-08-25T14:48:04;26.50;58.60
70269;DHT22;58514;48.398;-4.274;2022-08-25T14:50:30;26.30;58.10
70269;DHT22;58514;48.398;-4.274;2022-08-25T14:52:56;26.30;58.30
70269;DHT22;58514;48.398;-4.274;2022-08-25T14:55:22;26.20;58.20
70269;DHT22;58514;48.398;-4.274;2022-08-25T14:57:48;26.20;59.20
70269;DHT22;58514;48.398;-4.274;2022-08-25T15:00:13;26.20;59.10
70269;DHT22;58514;48.398;-4.274;2022-08-25T15:02:41;26.10;59.20
70269;DHT22;58514;48.398;-4.274;2022-08-25T15:05:08;26.10;59.60
70269;DHT22;58514;48.398;-4.274;2022-08-25T15:07:36;26.00;59.50
70269;DHT22;58514;48.398;-4.274;2022-08-25T15:10:21;25.90;59.70
70269;DHT22;58514;48.398;-4.274;2022-08-25T15:12:46;25.80;59.40
70269;DHT22;58514;48.398;-4.274;2022-08-25T15:15:12;25.70;59.10
70269;DHT22;58514;48.398;-4.274;2022-08-25T15:17:38;25.60;58.90
70269;DHT22;58514;48.398;-4.274;2022-08-25T15:20:06;25.50;59.40
70269;DHT22;58514;48.398;-4.274;2022-08-25T15:22:33;25.50;59.30
70269;DHT22;58514;48.398;-4.274;2022-08-25T15:24:58;25.50;59.90
70269;DHT22;58514;48.398;-4.274;2022-08-25T15:27:24;25.50;60.00
70269;DHT22;58514;48.398;-4.274;2022-08-25T15:29:50;25.40;60.20
70269;DHT22;58514;48.398;-4.274;2022-08-25T15:32:15;25.20;59.50
70269;DHT22;58514;48.398;-4.274;2022-08-25T15:34:41;25.10;59.70
70269;DHT22;58514;48.398;-4.274;2022-08-25T15:37:13;25.10;60.00
70269;DHT22;58514;48.398;-4.274;2022-08-25T15:39:40;25.00;59.90
70269;DHT22;58514;48.398;-4.274;2022-08-25T15:42:08;25.00;60.90
70269;DHT22;58514;48.398;-4.274;2022-08-25T15:44:40;24.80;59.90
70269;DHT22;58514;48.398;-4.274;2022-08-25T15:47:06;24.70;60.20
70269;DHT22;58514;48.398;-4.274;2022-08-25T15:49:32;24.60;59.70
70269;DHT22;58514;48.398;-4.274;2022-08-25T15:51:59;24.50;60.40
70269;DHT22;58514;48.398;-4.274;2022-08-25T15:54:25;24.40;60.50
70269;DHT22;58514;48.398;-4.274;2022-08-25T15:56:51;24.20;60.70
70269;DHT22;58514;48.398;-4.274;2022-08-25T15:59:18;24.20;60.90
70269;DHT22;58514;48.398;-4.274;2022-08-25T16:01:44;24.10;61.30
70269;DHT22;58514;48.398;-4.274;2022-08-25T16:04:10;24.00;62.60
70269;DHT22;58514;48.398;-4.274;2022-08-25T16:06:36;23.90;61.60
70269;DHT22;58514;48.398;-4.274;2022-08-25T16:09:03;23.80;63.00
70269;DHT22;58514;48.398;-4.274;2022-08-25T16:11:30;23.70;61.80
70269;DHT22;58514;48.398;-4.274;2022-08-25T16:13:56;23.70;61.30
70269;DHT22;58514;48.398;-4.274;2022-08-25T16:16:26;23.60;62.50
70269;DHT22;58514;48.398;-4.274;2022-08-25T16:18:53;23.50;63.10
70269;DHT22;58514;48.398;-4.274;2022-08-25T16:21:21;23.40;63.30
70269;DHT22;58514;48.398;-4.274;2022-08-25T16:23:49;23.40;63.40
70269;DHT22;58514;48.398;-4.274;2022-08-25T16:26:17;23.40;63.60
70269;DHT22;58514;48.398;-4.274;2022-08-25T16:28:43;23.40;63.70
70269;DHT22;58514;48.398;-4.274;2022-08-25T16:31:10;23.40;62.90
70269;DHT22;58514;48.398;-4.274;2022-08-25T16:33:36;23.40;64.80
70269;DHT22;58514;48.398;-4.274;2022-08-25T16:36:04;23.50;63.90
70269;DHT22;58514;48.398;-4.274;2022-08-25T16:38:31;23.50;63.20
70269;DHT22;58514;48.398;-4.274;2022-08-25T16:40:57;23.50;63.80
70269;DHT22;58514;48.398;-4.274;2022-08-25T16:43:22;23.50;63.90
70269;DHT22;58514;48.398;-4.274;2022-08-25T16:45:59;23.50;64.20
70269;DHT22;58514;48.398;-4.274;2022-08-25T16:48:26;23.50;63.70
70269;DHT22;58514;48.398;-4.274;2022-08-25T16:50:52;23.50;64.60
70269;DHT22;58514;48.398;-4.274;2022-08-25T16:53:18;23.50;64.10
70269;DHT22;58514;48.398;-4.274;2022-08-25T16:56:04;23.50;64.60
70269;DHT22;58514;48.398;-4.274;2022-08-25T16:58:31;23.50;63.70
70269;DHT22;58514;48.398;-4.274;2022-08-25T17:01:11;23.50;63.50
70269;DHT22;58514;48.398;-4.274;2022-08-25T17:03:38;23.40;64.10
70269;DHT22;58514;48.398;-4.274;2022-08-25T17:06:05;23.40;62.90
70269;DHT22;58514;48.398;-4.274;2022-08-25T17:08:31;23.40;63.90
70269;DHT22;58514;48.398;-4.274;2022-08-25T17:11:15;23.40;63.60
70269;DHT22;58514;48.398;-4.274;2022-08-25T17:13:44;23.30;64.00
70269;DHT22;58514;48.398;-4.274;2022-08-25T17:16:11;23.20;64.40
70269;DHT22;58514;48.398;-4.274;2022-08-25T17:18:38;23.20;65.20
70269;DHT22;58514;48.398;-4.274;2022-08-25T17:21:09;23.10;64.30
70269;DHT22;58514;48.398;-4.274;2022-08-25T17:23:41;23.10;64.60
70269;DHT22;58514;48.398;-4.274;2022-08-25T17:26:12;23.00;64.40
70269;DHT22;58514;48.398;-4.274;2022-08-25T17:28:39;22.90;65.20
70269;DHT22;58514;48.398;-4.274;2022-08-25T17:31:05;22.90;65.00
70269;DHT22;58514;48.398;-4.274;2022-08-25T17:33:31;22.80;66.60
70269;DHT22;58514;48.398;-4.274;2022-08-25T17:35:57;22.80;66.00
70269;DHT22;58514;48.398;-4.274;2022-08-25T17:38:24;22.70;66.10
70269;DHT22;58514;48.398;-4.274;2022-08-25T17:40:57;22.70;66.00
70269;DHT22;58514;48.398;-4.274;2022-08-25T17:43:26;22.60;66.00
70269;DHT22;58514;48.398;-4.274;2022-08-25T17:45:53;22.60;65.40
70269;DHT22;58514;48.398;-4.274;2022-08-25T17:48:22;22.60;66.70
70269;DHT22;58514;48.398;-4.274;2022-08-25T17:50:47;22.50;65.40
70269;DHT22;58514;48.398;-4.274;2022-08-25T17:53:13;22.40;65.90
70269;DHT22;58514;48.398;-4.274;2022-08-25T17:55:40;22.30;66.50
70269;DHT22;58514;48.398;-4.274;2022-08-25T17:58:07;22.30;66.60
70269;DHT22;58514;48.398;-4.274;2022-08-25T18:00:34;22.20;66.40
70269;DHT22;58514;48.398;-4.274;2022-08-25T18:03:02;22.10;66.40
70269;DHT22;58514;48.398;-4.274;2022-08-25T18:05:30;22.10;67.30
70269;DHT22;58514;48.398;-4.274;2022-08-25T18:07:56;21.90;67.00
70269;DHT22;58514;48.398;-4.274;2022-08-25T18:10:22;21.90;67.90
70269;DHT22;58514;48.398;-4.274;2022-08-25T18:12:48;21.80;67.40
70269;DHT22;58514;48.398;-4.274;2022-08-25T18:15:14;21.80;68.50
70269;DHT22;58514;48.398;-4.274;2022-08-25T18:17:41;21.70;68.40
70269;DHT22;58514;48.398;-4.274;2022-08-25T18:20:08;21.70;68.10
70269;DHT22;58514;48.398;-4.274;2022-08-25T18:22:36;21.60;68.00
70269;DHT22;58514;48.398;-4.274;2022-08-25T18:25:05;21.50;69.00
70269;DHT22;58514;48.398;-4.274;2022-08-25T18:27:32;21.40;68.50
70269;DHT22;58514;48.398;-4.274;2022-08-25T18:29:58;21.40;69.30
70269;DHT22;58514;48.398;-4.274;2022-08-25T18:32:25;21.30;68.80
70269;DHT22;58514;48.398;-4.274;2022-08-25T18:34:51;21.30;69.30
70269;DHT22;58514;48.398;-4.274;2022-08-25T18:37:17;21.20;70.00
70269;DHT22;58514;48.398;-4.274;2022-08-25T18:40:02;21.10;70.00
70269;DHT22;58514;48.398;-4.274;2022-08-25T18:42:56;21.10;69.10
70269;DHT22;58514;48.398;-4.274;2022-08-25T18:45:27;21.00;70.20
70269;DHT22;58514;48.398;-4.274;2022-08-25T18:47:53;20.90;70.00
70269;DHT22;58514;48.398;-4.274;2022-08-25T18:50:23;20.90;69.40
70269;DHT22;58514;48.398;-4.274;2022-08-25T18:52:49;20.80;69.90
70269;DHT22;58514;48.398;-4.274;2022-08-25T18:55:15;20.80;71.10
70269;DHT22;58514;48.398;-4.274;2022-08-25T18:57:41;20.70;71.40
70269;DHT22;58514;48.398;-4.274;2022-08-25T19:00:10;20.70;71.50
70269;DHT22;58514;48.398;-4.274;2022-08-25T19:02:37;20.60;72.20
70269;DHT22;58514;48.398;-4.274;2022-08-25T19:05:03;20.50;72.30
70269;DHT22;58514;48.398;-4.274;2022-08-25T19:07:29;20.50;72.10
70269;DHT22;58514;48.398;-4.274;2022-08-25T19:09:55;20.50;72.80
70269;DHT22;58514;48.398;-4.274;2022-08-25T19:12:21;20.50;73.40
70269;DHT22;58514;48.398;-4.274;2022-08-25T19:14:47;20.40;72.00
70269;DHT22;58514;48.398;-4.274;2022-08-25T19:17:12;20.40;73.10
70269;DHT22;58514;48.398;-4.274;2022-08-25T19:19:38;20.40;73.30
70269;DHT22;58514;48.398;-4.274;2022-08-25T19:22:04;20.30;74.40
70269;DHT22;58514;48.398;-4.274;2022-08-25T19:24:30;20.30;74.10
70269;DHT22;58514;48.398;-4.274;2022-08-25T19:26:56;20.20;74.30
70269;DHT22;58514;48.398;-4.274;2022-08-25T19:29:22;20.20;73.60
70269;DHT22;58514;48.398;-4.274;2022-08-25T19:31:48;20.20;74.00
70269;DHT22;58514;48.398;-4.274;2022-08-25T19:34:20;20.10;74.50
70269;DHT22;58514;48.398;-4.274;2022-08-25T19:36:47;20.00;73.80
70269;DHT22;58514;48.398;-4.274;2022-08-25T19:39:15;19.90;74.30
70269;DHT22;58514;48.398;-4.274;2022-08-25T19:41:41;19.90;74.60
70269;DHT22;58514;48.398;-4.274;2022-08-25T19:44:08;19.80;74.90
70269;DHT22;58514;48.398;-4.274;2022-08-25T19:46:38;19.80;74.80
70269;DHT22;58514;48.398;-4.274;2022-08-25T19:49:14;19.80;75.20
70269;DHT22;58514;48.398;-4.274;2022-08-25T19:51:44;19.70;76.10
70269;DHT22;58514;48.398;-4.274;2022-08-25T19:54:16;19.80;76.20
70269;DHT22;58514;48.398;-4.274;2022-08-25T19:56:43;19.70;75.80
70269;DHT22;58514;48.398;-4.274;2022-08-25T19:59:10;19.70;75.20
70269;DHT22;58514;48.398;-4.274;2022-08-25T20:01:35;19.60;75.80
70269;DHT22;58514;48.398;-4.274;2022-08-25T20:04:02;19.50;75.50
70269;DHT22;58514;48.398;-4.274;2022-08-25T20:06:29;19.50;77.50
70269;DHT22;58514;48.398;-4.274;2022-08-25T20:08:57;19.50;76.60
70269;DHT22;58514;48.398;-4.274;2022-08-25T20:11:24;19.40;76.90
70269;DHT22;58514;48.398;-4.274;2022-08-25T20:13:49;19.40;76.90
70269;DHT22;58514;48.398;-4.274;2022-08-25T20:16:15;19.30;76.20
70269;DHT22;58514;48.398;-4.274;2022-08-25T20:18:41;19.20;76.80
70269;DHT22;58514;48.398;-4.274;2022-08-25T20:21:06;19.20;77.00
70269;DHT22;58514;48.398;-4.274;2022-08-25T20:23:32;19.20;79.40
70269;DHT22;58514;48.398;-4.274;2022-08-25T20:26:17;19.10;78.30
70269;DHT22;58514;48.398;-4.274;2022-08-25T20:28:42;19.10;77.40
70269;DHT22;58514;48.398;-4.274;2022-08-25T20:31:08;19.00;77.70
70269;DHT22;58514;48.398;-4.274;2022-08-25T20:33:34;19.00;78.60
70269;DHT22;58514;48.398;-4.274;2022-08-25T20:36:00;19.00;79.00
70269;DHT22;58514;48.398;-4.274;2022-08-25T20:38:26;19.00;79.40
70269;DHT22;58514;48.398;-4.274;2022-08-25T20:40:55;18.90;78.40
70269;DHT22;58514;48.398;-4.274;2022-08-25T20:43:21;18.90;79.10
70269;DHT22;58514;48.398;-4.274;2022-08-25T20:45:46;18.80;78.30
70269;DHT22;58514;48.398;-4.274;2022-08-25T20:48:12;18.80;78.60
70269;DHT22;58514;48.398;-4.274;2022-08-25T20:50:38;18.70;78.60
70269;DHT22;58514;48.398;-4.274;2022-08-25T20:53:04;18.70;78.00
70269;DHT22;58514;48.398;-4.274;2022-08-25T20:55:31;18.60;80.40
70269;DHT22;58514;48.398;-4.274;2022-08-25T20:57:57;18.60;79.30
70269;DHT22;58514;48.398;-4.274;2022-08-25T21:00:23;18.50;80.70
70269;DHT22;58514;48.398;-4.274;2022-08-25T21:02:49;18.50;82.00
70269;DHT22;58514;48.398;-4.274;2022-08-25T21:05:16;18.50;81.30
70269;DHT22;58514;48.398;-4.274;2022-08-25T21:07:42;18.50;80.80
70269;DHT22;58514;48.398;-4.274;2022-08-25T21:10:09;18.50;80.50
70269;DHT22;58514;48.398;-4.274;2022-08-25T21:12:36;18.40;79.70
70269;DHT22;58514;48.398;-4.274;2022-08-25T21:15:02;18.40;80.90
70269;DHT22;58514;48.398;-4.274;2022-08-25T21:17:28;18.30;80.30
70269;DHT22;58514;48.398;-4.274;2022-08-25T21:19:54;18.40;81.30
70269;DHT22;58514;48.398;-4.274;2022-08-25T21:22:19;18.30;81.30
70269;DHT22;58514;48.398;-4.274;2022-08-25T21:24:45;18.30;81.30
70269;DHT22;58514;48.398;-4.274;2022-08-25T21:27:12;18.30;81.90
70269;DHT22;58514;48.398;-4.274;2022-08-25T21:29:38;18.30;82.50
70269;DHT22;58514;48.398;-4.274;2022-08-25T21:32:04;18.30;81.20
70269;DHT22;58514;48.398;-4.274;2022-08-25T21:34:30;18.30;81.10
70269;DHT22;58514;48.398;-4.274;2022-08-25T21:36:57;18.20;80.40
70269;DHT22;58514;48.398;-4.274;2022-08-25T21:39:23;18.20;81.00
70269;DHT22;58514;48.398;-4.274;2022-08-25T21:41:51;18.20;81.60
70269;DHT22;58514;48.398;-4.274;2022-08-25T21:44:17;18.10;81.10
70269;DHT22;58514;48.398;-4.274;2022-08-25T21:46:43;18.10;81.00
70269;DHT22;58514;48.398;-4.274;2022-08-25T21:49:09;18.10;82.40
70269;DHT22;58514;48.398;-4.274;2022-08-25T21:51:41;18.10;82.70
70269;DHT22;58514;48.398;-4.274;2022-08-25T21:54:14;18.10;81.30
70269;DHT22;58514;48.398;-4.274;2022-08-25T21:56:50;18.10;81.80
70269;DHT22;58514;48.398;-4.274;2022-08-25T21:59:22;18.00;81.10
70269;DHT22;58514;48.398;-4.274;2022-08-25T22:01:59;18.00;81.10
70269;DHT22;58514;48.398;-4.274;2022-08-25T22:04:25;17.90;80.70
70269;DHT22;58514;48.398;-4.274;2022-08-25T22:06:52;17.90;81.70
70269;DHT22;58514;48.398;-4.274;2022-08-25T22:09:18;17.90;83.10
70269;DHT22;58514;48.398;-4.274;2022-08-25T22:11:44;17.90;84.30
70269;DHT22;58514;48.398;-4.274;2022-08-25T22:14:11;17.90;83.10
70269;DHT22;58514;48.398;-4.274;2022-08-25T22:16:39;17.90;83.10
70269;DHT22;58514;48.398;-4.274;2022-08-25T22:19:06;17.90;83.50
70269;DHT22;58514;48.398;-4.274;2022-08-25T22:21:33;17.90;82.30
70269;DHT22;58514;48.398;-4.274;2022-08-25T22:23:58;17.90;82.80
70269;DHT22;58514;48.398;-4.274;2022-08-25T22:26:26;17.80;82.30
70269;DHT22;58514;48.398;-4.274;2022-08-25T22:28:54;17.80;81.40
70269;DHT22;58514;48.398;-4.274;2022-08-25T22:31:20;17.70;81.50
70269;DHT22;58514;48.398;-4.274;2022-08-25T22:33:46;17.60;81.90
70269;DHT22;58514;48.398;-4.274;2022-08-25T22:36:18;17.60;83.80
70269;DHT22;58514;48.398;-4.274;2022-08-25T22:38:44;17.60;83.40
70269;DHT22;58514;48.398;-4.274;2022-08-25T22:41:10;17.60;82.40
70269;DHT22;58514;48.398;-4.274;2022-08-25T22:43:36;17.50;82.40
70269;DHT22;58514;48.398;-4.274;2022-08-25T22:46:03;17.50;82.90
70269;DHT22;58514;48.398;-4.274;2022-08-25T22:48:30;17.50;82.70
70269;DHT22;58514;48.398;-4.274;2022-08-25T22:51:06;17.40;83.30
70269;DHT22;58514;48.398;-4.274;2022-08-25T22:53:32;17.40;83.40
70269;DHT22;58514;48.398;-4.274;2022-08-25T22:55:58;17.40;83.50
70269;DHT22;58514;48.398;-4.274;2022-08-25T22:58:23;17.40;83.20
70269;DHT22;58514;48.398;-4.274;2022-08-25T23:00:49;17.30;83.70
70269;DHT22;58514;48.398;-4.274;2022-08-25T23:03:15;17.30;83.80
70269;DHT22;58514;48.398;-4.274;2022-08-25T23:05:40;17.30;83.50
70269;DHT22;58514;48.398;-4.274;2022-08-25T23:08:07;17.30;84.70
70269;DHT22;58514;48.398;-4.274;2022-08-25T23:10:33;17.30;84.60
70269;DHT22;58514;48.398;-4.274;2022-08-25T23:12:59;17.30;86.10
70269;DHT22;58514;48.398;-4.274;2022-08-25T23:15:24;17.30;84.90
70269;DHT22;58514;48.398;-4.274;2022-08-25T23:17:50;17.30;85.10
70269;DHT22;58514;48.398;-4.274;2022-08-25T23:20:17;17.20;84.30
70269;DHT22;58514;48.398;-4.274;2022-08-25T23:23:01;17.20;84.70
70269;DHT22;58514;48.398;-4.274;2022-08-25T23:25:27;17.20;83.80
70269;DHT22;58514;48.398;-4.274;2022-08-25T23:27:53;17.10;84.50
70269;DHT22;58514;48.398;-4.274;2022-08-25T23:30:18;17.10;84.30
70269;DHT22;58514;48.398;-4.274;2022-08-25T23:32:44;17.10;85.70
70269;DHT22;58514;48.398;-4.274;2022-08-25T23:35:10;17.10;85.10
70269;DHT22;58514;48.398;-4.274;2022-08-25T23:37:36;17.10;85.90
70269;DHT22;58514;48.398;-4.274;2022-08-25T23:40:03;17.00;85.90
70269;DHT22;58514;48.398;-4.274;2022-08-25T23:42:29;17.00;85.50
70269;DHT22;58514;48.398;-4.274;2022-08-25T23:44:55;17.00;85.00
70269;DHT22;58514;48.398;-4.274;2022-08-25T23:47:21;17.00;85.60
70269;DHT22;58514;48.398;-4.274;2022-08-25T23:49:46;16.90;84.50
70269;DHT22;58514;48.398;-4.274;2022-08-25T23:52:13;16.90;86.10
70269;DHT22;58514;48.398;-4.274;2022-08-25T23:54:42;16.90;85.60
70269;DHT22;58514;48.398;-4.274;2022-08-25T23:57:07;16.90;86.60
70269;DHT22;58514;48.398;-4.274;2022-08-25T23:59:33;16.80;85.90
